Time;durP1;ratioP1;P1;durP2;ratioP2;P2;SDS_P1;SDS_P2;PMS_P1;PMS_P2;Temp;Humidity;BMP_temperature;BMP_pressure;BME280_temperature;BME280_humidity;BME280_pressure;Samples;Min_cycle;Max_cycle;Signal;HPM_P1;HPM_P2
2022/05/02 04:12:42;;;;;;;12.37;9.90;;;;;;;10.85;88.20;100454.91;5561971;32;237862;-84
2022/05/02 04:15:46;;;;;;;12.73;9.82;;;;;;;10.85;87.73;100457.56;5547604;32;33811;-84
2022/05/02 04:18:48;;;;;;;15.13;9.93;;;;;;;10.93;87.24;100454.53;5546429;32;32571;-85
2022/05/02 04:21:51;;;;;;;12.85;9.70;;;;;;;10.99;86.60;100461.31;5548691;32;34582;-84
2022/05/02 04:24:54;;;;;;;15.02;9.98;;;;;;;10.98;85.43;100455.19;5548076;32;33704;-83
2022/05/02 04:27:57;;;;;;;17.02;10.20;;;;;;;11.03;83.75;100465.56;5547513;32;32455;-85
2022/05/02 04:31:00;;;;;;;12.35;9.57;;;;;;;11.10;83.62;100466.09;5548406;32;34385;-82
2022/05/02 04:34:03;;;;;;;11.38;9.45;;;;;;;11.10;82.94;100469.62;5547288;32;32805;-82
2022/05/02 04:37:07;;;;;;;11.88;9.55;;;;;;;11.19;82.54;100468.28;5546800;32;32545;-82
2022/05/02 04:40:10;;;;;;;11.82;9.32;;;;;;;11.29;82.00;100471.34;5548084;32;33559;-83
2022/05/02 04:43:13;;;;;;;14.07;10.13;;;;;;;11.29;80.60;100471.34;5546778;32;32290;-83
2022/05/02 04:46:19;;;;;;;12.77;9.25;;;;;;;11.38;81.71;100470.87;5547968;32;33310;-83
2022/05/02 04:49:22;;;;;;;11.10;9.63;;;;;;;11.49;79.43;100475.62;5548387;32;34510;-83
2022/05/02 04:52:24;;;;;;;11.90;9.07;;;;;;;11.58;78.70;100479.59;5547458;32;32437;-83
2022/05/02 04:55:27;;;;;;;11.48;9.35;;;;;;;11.62;78.70;100480.28;5554505;32;35002;-83
2022/05/02 04:58:30;;;;;;;12.20;9.65;;;;;;;11.77;77.71;100487.44;5547591;32;32939;-83
2022/05/02 05:01:32;;;;;;;14.25;9.88;;;;;;;11.89;77.80;100485.06;5547829;32;34716;-83
2022/05/02 05:04:36;;;;;;;14.52;10.30;;;;;;;11.98;76.50;100480.13;5547073;32;32343;-83
2022/05/02 05:07:39;;;;;;;13.75;10.27;;;;;;;12.13;75.60;100488.25;5549949;32;33417;-84
2022/05/02 05:10:52;;;;;;;12.88;9.60;;;;;;;12.23;74.75;100478.81;5546660;32;33251;-83
2022/05/02 05:18:05;;;;;;;12.20;9.47;;;;;;;12.74;72.87;100484.91;5528154;32;34117;-83
2022/05/02 05:21:24;;;;;;;10.65;8.82;;;;;;;13.05;70.14;100488.47;5527297;32;32115;-83
2022/05/02 05:24:58;;;;;;;10.40;8.85;;;;;;;13.12;68.49;100483.66;5521548;32;33774;-83
2022/05/02 05:28:33;;;;;;;11.07;8.30;;;;;;;13.41;68.14;100487.22;5530681;32;34020;-83
2022/05/02 05:31:50;;;;;;;11.18;8.27;;;;;;;13.39;65.84;100474.94;5504814;32;34378;-84
2022/05/02 05:35:09;;;;;;;11.07;8.70;;;;;;;13.64;66.59;100484.16;5527022;32;33371;-85
2022/05/02 05:38:26;;;;;;;10.15;8.45;;;;;;;13.85;66.22;100485.50;5536055;32;33541;-85
2022/05/02 05:41:48;;;;;;;12.85;8.95;;;;;;;13.81;63.68;100485.78;5519065;32;33651;-86
2022/05/02 05:45:09;;;;;;;11.40;8.77;;;;;;;13.79;64.78;100483.22;5523538;32;33278;-90
2022/05/02 05:48:21;;;;;;;11.50;8.85;;;;;;;13.98;65.89;100477.59;5522212;32;34278;-86
2022/05/02 05:51:34;;;;;;;11.27;8.48;;;;;;;14.28;64.97;100483.75;5523554;32;34065;-86
2022/05/02 05:55:04;;;;;;;11.00;9.23;;;;;;;14.24;65.05;100479.56;5533735;32;33987;-86
2022/05/02 05:58:20;;;;;;;10.97;8.07;;;;;;;14.38;64.63;100484.87;5525590;32;33180;-86
2022/05/02 06:01:36;;;;;;;9.00;8.10;;;;;;;14.68;61.82;100478.50;5519752;32;34116;-86
2022/05/02 06:04:41;;;;;;;11.40;8.20;;;;;;;14.78;61.90;100480.63;5539169;32;34023;-87
2022/05/02 06:07:46;;;;;;;10.93;8.38;;;;;;;15.11;60.04;100476.66;5531842;32;34423;-87
2022/05/02 06:10:51;;;;;;;12.27;7.28;;;;;;;15.33;58.87;100484.06;5522172;32;33661;-85
2022/05/02 06:13:58;;;;;;;10.77;8.05;;;;;;;15.28;59.04;100485.34;5529898;32;34046;-85
2022/05/02 06:20:24;;;;;;;13.30;8.18;;;;;;;15.38;58.08;100489.09;5526052;32;35502;-85
2022/05/02 06:23:31;;;;;;;9.55;7.80;;;;;;;15.99;56.91;100484.97;5519746;32;34763;-85
2022/05/02 06:26:43;;;;;;;9.18;7.97;;;;;;;16.39;55.60;100489.28;5530788;32;34334;-90
2022/05/02 06:29:46;;;;;;;10.57;8.15;;;;;;;16.30;55.43;100486.28;5519006;32;32712;-87
2022/05/02 06:32:51;;;;;;;13.30;8.23;;;;;;;16.87;54.05;100498.28;5528622;32;32553;-87
2022/05/02 06:36:45;;;;;;;12.52;8.60;;;;;;;17.71;51.39;100486.66;5515924;32;32389;-87
2022/05/02 06:40:09;;;;;;;12.23;8.40;;;;;;;17.89;49.90;100490.56;5509043;32;34368;-87
2022/05/02 06:43:24;;;;;;;14.02;8.23;;;;;;;17.92;49.12;100500.22;5519506;32;34408;-87
2022/05/02 06:46:41;;;;;;;12.02;7.87;;;;;;;17.58;47.86;100495.66;5514992;32;32631;-87
2022/05/02 06:49:50;;;;;;;11.20;7.95;;;;;;;17.87;49.05;100500.56;5513284;32;34099;-86
2022/05/02 06:53:25;;;;;;;9.63;7.68;;;;;;;17.64;47.79;100503.22;5529301;32;33281;-85
2022/05/02 06:56:39;;;;;;;10.65;7.12;;;;;;;17.74;47.28;100503.34;5428718;32;32938;-89
2022/05/02 07:00:00;;;;;;;7.93;6.68;;;;;;;17.67;47.37;100496.75;5433358;32;34577;-87
2022/05/02 07:03:14;;;;;;;8.93;6.03;;;;;;;17.72;46.40;100499.09;5434225;32;33033;-86
2022/05/02 07:06:42;;;;;;;10.15;6.72;;;;;;;17.29;47.11;100495.22;5438850;32;34176;-86
2022/05/02 07:10:12;;;;;;;9.52;6.97;;;;;;;17.45;47.82;100500.25;5451943;32;33996;-86
2022/05/02 07:13:36;;;;;;;6.82;5.80;;;;;;;17.19;47.48;100498.59;5430286;32;33806;-86
2022/05/02 07:16:47;;;;;;;5.90;5.30;;;;;;;17.27;48.88;100503.38;5438655;32;33415;-86
2022/05/02 07:20:13;;;;;;;8.05;5.47;;;;;;;17.57;48.61;100506.50;5444787;32;34300;-86
2022/05/02 07:23:38;;;;;;;7.90;5.93;;;;;;;18.03;47.43;100510.09;5452563;32;35057;-86
2022/05/02 07:26:46;;;;;;;7.00;5.87;;;;;;;17.86;48.04;100503.38;5447997;32;32786;-86
2022/05/02 07:29:51;;;;;;;7.70;5.70;;;;;;;17.52;48.96;100496.12;5436324;32;33933;-86
2022/05/02 07:33:03;;;;;;;8.07;5.28;;;;;;;18.00;48.53;100497.75;5507217;32;35132;-87
2022/05/02 07:36:06;;;;;;;6.35;5.43;;;;;;;18.28;47.48;100492.91;5510168;32;33590;-87
2022/05/02 07:39:13;;;;;;;8.38;5.82;;;;;;;17.85;48.19;100493.63;5511227;32;33971;-87
2022/05/02 07:42:18;;;;;;;11.07;5.53;;;;;;;18.24;47.88;100494.13;5515713;32;33170;-86
2022/05/02 07:45:30;;;;;;;8.68;6.03;;;;;;;18.60;47.39;100504.69;5527840;32;32940;-86
2022/05/02 07:48:35;;;;;;;6.62;4.85;;;;;;;18.79;46.20;100493.28;5524066;32;34889;-85
2022/05/02 07:51:43;;;;;;;7.70;5.43;;;;;;;18.98;46.19;100492.59;5533358;32;33147;-85
2022/05/02 07:54:49;;;;;;;10.60;5.55;;;;;;;19.46;44.98;100486.91;5525105;32;32573;-86
2022/05/02 07:57:56;;;;;;;8.77;5.65;;;;;;;19.63;45.35;100491.69;5519093;32;32419;-86
2022/05/02 08:00:59;;;;;;;6.90;4.95;;;;;;;21.10;43.82;100479.62;5511064;32;33851;-86
2022/05/02 08:04:02;;;;;;;5.72;4.40;;;;;;;21.67;41.90;100477.97;5519213;32;32568;-86
2022/05/02 08:07:11;;;;;;;6.35;5.00;;;;;;;21.90;40.68;100486.59;5524348;32;33704;-86
2022/05/02 08:10:24;;;;;;;5.78;4.85;;;;;;;21.57;39.80;100487.94;5509392;32;32763;-86
2022/05/02 08:13:47;;;;;;;9.57;4.47;;;;;;;20.69;39.87;100495.91;5515690;32;33116;-87
2022/05/02 08:17:02;;;;;;;7.95;4.68;;;;;;;20.63;42.39;100491.06;5509653;32;32451;-86
2022/05/02 08:20:30;;;;;;;8.20;4.40;;;;;;;20.64;42.72;100494.59;5516876;32;33686;-86
2022/05/02 08:27:49;;;;;;;10.07;4.53;;;;;;;20.46;41.92;100484.50;5519043;32;33537;-87
2022/05/02 08:31:11;;;;;;;5.25;3.90;;;;;;;20.01;43.15;100481.25;5531695;32;34694;-87
2022/05/02 08:34:33;;;;;;;5.30;4.12;;;;;;;19.40;43.58;100477.50;5521298;32;33822;-86
2022/05/02 08:37:54;;;;;;;5.37;4.07;;;;;;;19.19;43.89;100475.66;5521993;32;33755;-86
2022/05/02 08:41:15;;;;;;;5.07;4.30;;;;;;;19.78;42.31;100473.31;5530281;32;34728;-86
2022/05/02 08:44:52;;;;;;;10.68;4.57;;;;;;;19.53;42.87;100470.06;5520951;32;33970;-87
2022/05/02 08:48:26;;;;;;;6.82;4.87;;;;;;;20.00;43.20;100467.91;5523731;32;34007;-87
2022/05/02 08:51:57;;;;;;;7.03;5.20;;;;;;;20.13;42.24;100467.69;5511921;32;33747;-87
2022/05/02 08:55:05;;;;;;;6.03;4.50;;;;;;;;;;5523147;32;32750;-86
2022/05/02 08:58:30;;;;;;;6.40;4.45;;;;;;;19.94;43.60;100472.00;5523285;32;35140;-86
2022/05/02 09:01:57;;;;;;;4.30;3.90;;;;;;;20.16;44.02;100462.88;5513347;32;33056;-86
2022/05/02 09:05:26;;;;;;;6.10;4.62;;;;;;;20.42;42.38;100461.53;5515372;32;33130;-90
2022/05/02 09:08:54;;;;;;;10.90;4.70;;;;;;;20.39;41.67;100456.41;5519130;32;33133;-85
2022/05/02 09:12:34;;;;;;;7.45;4.37;;;;;;;20.27;42.71;100461.06;5525426;32;32908;-85
2022/05/02 09:16:16;;;;;;;5.87;4.27;;;;;;;20.36;43.42;100454.00;5526561;32;32378;-86
2022/05/02 09:19:31;;;;;;;7.72;4.70;;;;;;;20.46;41.73;100450.34;5538880;32;32809;-86
2022/05/02 09:23:04;;;;;;;8.82;4.32;;;;;;;20.43;42.74;100453.28;5535011;32;33856;-86
2022/05/02 09:26:29;;;;;;;9.27;4.30;;;;;;;20.73;42.39;100450.66;5515647;32;34283;-87
2022/05/02 09:29:55;;;;;;;15.55;4.43;;;;;;;20.68;42.27;100451.09;5520166;32;32962;-86
2022/05/02 09:33:09;;;;;;;6.50;4.40;;;;;;;20.62;41.31;100443.56;5530392;32;33704;-86
2022/05/02 09:36:25;;;;;;;6.00;4.12;;;;;;;20.72;43.99;100440.87;5537513;32;33969;-86
2022/05/02 09:39:52;;;;;;;6.37;3.87;;;;;;;20.35;41.73;100439.69;5538818;32;32360;-86
2022/05/02 09:43:13;;;;;;;6.75;4.30;;;;;;;20.32;43.18;100440.81;5538321;32;34449;-86
2022/05/02 09:50:14;;;;;;;5.78;4.10;;;;;;;19.66;41.90;100437.59;5534607;32;33892;-89
2022/05/02 09:53:35;;;;;;;9.98;3.80;;;;;;;19.63;41.82;100439.69;5520727;32;33235;-86
2022/05/02 09:56:47;;;;;;;;;;;;;;;19.99;41.73;100437.47;5522455;32;32270;-86
2022/05/02 10:01:06;;;;;;;7.60;3.50;;;;;;;20.02;42.08;100430.97;5535948;32;33333;-85
2022/05/02 10:03:22;;;;;;;6.90;3.92;;;;;;;20.16;42.92;100422.50;5535865;32;32465;-85
2022/05/02 10:06:50;;;;;;;8.15;4.00;;;;;;;20.22;43.21;100421.09;5526526;32;35275;-86
2022/05/02 10:10:21;;;;;;;8.85;4.30;;;;;;;20.13;43.04;100419.22;5507933;32;34184;-86
2022/05/02 10:13:28;;;;;;;8.33;4.27;;;;;;;20.16;42.28;100414.41;5529135;32;33016;-86
2022/05/02 10:16:37;;;;;;;10.05;4.60;;;;;;;20.07;43.97;100407.19;5530856;32;33127;-86
2022/05/02 10:20:05;;;;;;;5.57;4.10;;;;;;;19.95;44.63;100411.78;5518301;32;33012;-86
2022/05/02 10:23:37;;;;;;;7.32;4.35;;;;;;;20.07;44.13;100407.19;5513899;32;34121;-85
2022/05/02 10:26:52;;;;;;;6.55;3.97;;;;;;;20.17;43.25;100401.81;5536248;32;35278;-85
2022/05/02 10:30:08;;;;;;;4.07;3.47;;;;;;;20.33;43.10;100395.88;5530991;32;32893;-85
2022/05/02 10:33:21;;;;;;;4.55;4.00;;;;;;;20.95;40.76;100387.53;5527664;32;35295;-84
2022/05/02 10:36:38;;;;;;;6.47;3.62;;;;;;;21.43;39.02;100392.97;5533695;32;33089;-84
2022/05/02 10:39:47;;;;;;;6.22;4.12;;;;;;;22.46;36.51;100391.16;5534218;32;33047;-84
2022/05/02 10:42:54;;;;;;;4.53;3.70;;;;;;;22.88;35.69;100389.72;5534394;32;33106;-84
2022/05/02 10:45:59;;;;;;;3.70;3.33;;;;;;;23.23;35.39;100387.06;5526287;32;34760;-85
2022/05/02 10:49:08;;;;;;;4.75;3.30;;;;;;;22.90;34.09;100379.56;5529680;32;34848;-85
2022/05/02 10:52:35;;;;;;;5.60;3.10;;;;;;;23.17;34.88;100377.72;5532373;32;32519;-86
2022/05/02 10:55:59;;;;;;;4.75;3.60;;;;;;;23.37;33.69;100378.38;5526767;32;32408;-90
2022/05/02 10:59:04;;;;;;;4.22;3.28;;;;;;;23.55;32.95;100369.34;5514128;32;34217;-88
2022/05/02 11:02:32;;;;;;;8.85;3.25;;;;;;;23.59;32.86;100367.16;5536410;32;33861;-89
2022/05/02 11:06:02;;;;;;;4.70;3.15;;;;;;;24.37;33.02;100373.34;5532838;32;32739;-88
2022/05/02 11:09:06;;;;;;;4.47;3.33;;;;;;;25.30;31.66;100367.75;5552196;32;34322;-87
2022/05/02 11:12:21;;;;;;;7.25;3.40;;;;;;;25.65;30.49;100367.47;5559066;32;33631;-87
2022/05/02 11:15:25;;;;;;;3.55;3.25;;;;;;;24.94;31.27;100357.28;5541327;32;32734;-87
2022/05/02 11:22:23;;;;;;;4.78;3.17;;;;;;;25.77;29.37;100360.62;5539905;32;32347;-86
2022/05/02 11:25:35;;;;;;;5.68;3.10;;;;;;;26.23;29.79;100351.75;5555523;32;34438;-87
2022/05/02 11:28:59;;;;;;;4.78;3.22;;;;;;;26.19;29.26;100350.38;5537338;32;33763;-91
2022/05/02 11:32:09;;;;;;;8.02;3.50;;;;;;;25.95;28.40;100343.22;5548410;32;32832;-87
2022/05/02 11:35:16;;;;;;;4.75;3.20;;;;;;;25.45;29.16;100343.44;5534230;32;34418;-87
2022/05/02 11:38:54;;;;;;;4.25;3.00;;;;;;;25.19;28.09;100339.06;5529912;32;33617;-87
2022/05/02 11:42:07;;;;;;;5.10;3.40;;;;;;;25.77;29.33;100335.31;5541665;32;34130;-86
2022/05/02 11:45:17;;;;;;;4.32;3.15;;;;;;;24.59;29.39;100331.16;5522696;32;34251;-88
2022/05/02 11:48:19;;;;;;;4.75;3.42;;;;;;;24.40;30.44;100336.94;5546736;32;34751;-87
2022/05/02 11:51:40;;;;;;;3.87;3.05;;;;;;;24.23;29.78;100335.03;5539869;32;33744;-87
2022/05/02 11:54:51;;;;;;;3.17;2.87;;;;;;;23.88;30.68;100330.72;5523144;32;32853;-87
2022/05/02 11:58:08;;;;;;;3.92;3.20;;;;;;;23.87;32.15;100332.56;5526970;32;32521;-88
2022/05/02 12:01:15;;;;;;;7.87;3.60;;;;;;;23.45;32.56;100326.16;5526448;32;33735;-88
2022/05/02 12:04:22;;;;;;;4.55;3.20;;;;;;;23.42;32.21;100326.47;5528218;32;32351;-86
2022/05/02 12:07:31;;;;;;;5.40;3.35;;;;;;;23.57;32.39;100320.47;5549741;32;34730;-91
2022/05/02 12:10:35;;;;;;;3.80;3.12;;;;;;;23.24;32.00;100316.53;5541784;32;33078;-88
2022/05/02 12:13:46;;;;;;;4.28;3.25;;;;;;;23.25;32.22;100310.16;5532414;32;32495;-87
2022/05/02 12:17:11;;;;;;;3.30;3.00;;;;;;;23.45;32.32;100307.22;5551421;32;33422;-88
2022/05/02 12:20:29;;;;;;;3.78;3.12;;;;;;;23.82;32.21;100299.72;5528260;32;34402;-87
2022/05/02 12:23:34;;;;;;;4.72;3.30;;;;;;;23.91;31.39;100293.31;5545128;32;34001;-86
2022/05/02 12:26:45;;;;;;;4.53;3.22;;;;;;;23.02;32.08;100289.03;5549243;32;32903;-87
2022/05/02 12:30:00;;;;;;;4.95;3.55;;;;;;;22.91;33.61;100286.59;5542557;32;33959;-87
2022/05/02 12:33:05;;;;;;;4.20;3.50;;;;;;;23.18;31.46;100279.31;5542410;32;33627;-87
2022/05/02 12:36:20;;;;;;;4.12;3.20;;;;;;;23.06;31.90;100277.87;5552504;32;34222;-87
2022/05/02 12:39:28;;;;;;;5.85;3.22;;;;;;;23.13;32.31;100276.25;5559245;32;34973;-86
2022/05/02 12:42:44;;;;;;;3.85;3.28;;;;;;;22.94;31.94;100275.50;5549448;32;34416;-87
2022/05/02 12:45:47;;;;;;;6.43;3.55;;;;;;;22.88;32.67;100270.72;5544424;32;35367;-87
2022/05/02 12:48:58;;;;;;;4.60;3.45;;;;;;;22.85;32.14;100271.03;5536077;32;32623;-87
2022/05/02 12:52:04;;;;;;;5.27;3.30;;;;;;;22.98;33.15;100267.91;5527503;32;32517;-87
2022/05/02 12:55:09;;;;;;;6.32;3.60;;;;;;;23.12;32.76;100261.00;5543359;32;33999;-87
2022/05/02 13:01:50;;;;;;;4.18;3.42;;;;;;;22.63;33.33;100257.03;5552037;32;33912;-87
2022/05/02 13:04:56;;;;;;;6.72;3.95;;;;;;;22.45;32.74;100252.50;5547084;32;34001;-87
2022/05/02 13:08:12;;;;;;;6.50;3.80;;;;;;;22.39;33.49;100238.75;5529540;32;32292;-86
2022/05/02 13:11:22;;;;;;;4.70;3.47;;;;;;;22.07;32.31;100239.16;5526635;32;33283;-87
2022/05/02 13:14:27;;;;;;;4.78;3.53;;;;;;;21.88;33.47;100245.56;5533489;32;33464;-88
2022/05/02 13:17:31;;;;;;;4.18;3.78;;;;;;;21.68;33.18;100232.19;5541815;32;34453;-88
2022/05/02 13:20:35;;;;;;;5.70;4.78;;;;;;;21.74;33.52;100238.88;5527715;32;33166;-87
2022/05/02 13:24:01;;;;;;;7.95;3.80;;;;;;;21.94;34.71;100239.53;5540934;32;35802;-87
2022/05/02 13:27:10;;;;;;;13.62;4.28;;;;;;;22.03;34.77;100232.38;5518368;32;32934;-87
2022/05/02 13:30:13;;;;;;;4.50;3.70;;;;;;;22.00;34.41;100232.69;5521210;32;33818;-87
2022/05/02 13:33:21;;;;;;;4.00;3.60;;;;;;;21.99;34.16;100228.31;5536033;32;32637;-87
2022/05/02 13:36:25;;;;;;;5.68;3.50;;;;;;;22.30;32.69;100224.31;5512147;32;33974;-87
2022/05/02 13:39:57;;;;;;;3.35;3.12;;;;;;;22.47;33.49;100214.47;5522178;32;34554;-88
2022/05/02 13:43:25;;;;;;;6.22;3.72;;;;;;;22.60;32.02;100214.09;5527642;32;34157;-92
2022/05/02 13:46:50;;;;;;;5.25;3.55;;;;;;;22.16;32.94;100207.69;5523225;32;33648;-88
2022/05/02 13:50:12;;;;;;;5.47;3.40;;;;;;;22.20;31.68;100216.31;5535008;32;32782;-87
2022/05/02 13:53:40;;;;;;;7.22;3.80;;;;;;;22.62;32.10;100207.53;5549895;32;34147;-88
2022/05/02 13:57:17;;;;;;;4.30;3.40;;;;;;;22.64;31.93;100206.50;5553773;32;34221;-88
2022/05/02 14:03:55;;;;;;;9.43;3.72;;;;;;;23.19;30.66;100199.84;5549481;32;34384;-86
2022/05/02 14:07:11;;;;;;;7.93;3.72;;;;;;;22.86;30.91;100197.00;5539383;32;34157;-88
2022/05/02 14:10:15;;;;;;;6.87;3.30;;;;;;;22.64;31.79;100193.00;5525631;32;34563;-87
2022/05/02 14:13:20;;;;;;;9.15;3.80;;;;;;;22.53;33.17;100192.25;5544387;32;33909;-87
2022/05/02 14:16:23;;;;;;;4.70;3.55;;;;;;;22.49;32.57;100191.69;5532316;32;32844;-88
2022/05/02 14:19:26;;;;;;;4.03;3.62;;;;;;;22.93;32.52;100194.50;5529229;32;32722;-87
2022/05/02 14:22:38;;;;;;;3.40;3.10;;;;;;;23.00;32.33;100191.00;5552476;32;33629;-87
2022/05/02 14:25:43;;;;;;;4.80;3.00;;;;;;;22.86;31.28;100195.16;5524896;32;34111;-87
2022/05/02 14:28:48;;;;;;;3.35;3.05;;;;;;;22.72;31.42;100191.19;5531486;32;33984;-88
2022/05/02 14:32:02;;;;;;;4.20;3.00;;;;;;;22.83;29.92;100191.94;5534721;32;33570;-87
2022/05/02 14:35:07;;;;;;;6.05;2.83;;;;;;;22.67;30.43;100187.28;5537012;32;34148;-88
2022/05/02 14:38:16;;;;;;;3.30;2.80;;;;;;;23.05;29.47;100181.53;5543224;32;35011;-88
2022/05/02 14:41:22;;;;;;;3.70;2.80;;;;;;;22.98;28.15;100178.66;5538948;32;33272;-88
2022/05/02 14:44:26;;;;;;;3.87;2.75;;;;;;;23.29;27.81;100178.06;5521825;32;32794;-88
2022/05/02 14:47:33;;;;;;;3.30;3.00;;;;;;;23.08;27.99;100179.34;5504648;32;33223;-88
2022/05/02 14:50:39;;;;;;;4.28;3.28;;;;;;;23.41;28.52;100173.22;5518319;32;32994;-87
2022/05/02 14:53:44;;;;;;;7.87;2.87;;;;;;;22.92;30.14;100177.41;5530905;32;32648;-87
2022/05/02 14:56:48;;;;;;;3.28;2.97;;;;;;;22.19;31.11;100183.03;5537802;32;34027;-88
2022/05/02 14:59:58;;;;;;;5.00;3.30;;;;;;;21.82;31.80;100192.19;5517561;32;32419;-87
2022/05/02 15:03:05;;;;;;;7.65;3.80;;;;;;;21.14;33.03;100192.44;5539160;32;34387;-88
2022/05/02 15:06:10;;;;;;;15.15;3.75;;;;;;;21.01;33.88;100194.66;5535981;32;34609;-87
2022/05/02 15:13:16;;;;;;;3.10;2.80;;;;;;;20.49;35.65;100197.78;5551908;32;33598;-88
2022/05/02 15:16:34;;;;;;;5.85;3.42;;;;;;;20.24;36.32;100200.09;5563803;32;34976;-87
2022/05/02 15:19:56;;;;;;;6.72;3.33;;;;;;;20.03;37.35;100207.38;5537312;32;32779;-87
2022/05/02 15:23:02;;;;;;;5.05;3.05;;;;;;;19.91;37.31;100197.69;5534015;32;35673;-88
2022/05/02 15:26:05;;;;;;;5.62;2.90;;;;;;;19.90;37.72;100198.69;5515827;32;34126;-87
